Time;durP1;ratioP1;P1;durP2;ratioP2;P2;SDS_P1;SDS_P2;PMS_P1;PMS_P2;Temp;Humidity;BMP_temperature;BMP_pressure;BME280_temperature;BME280_humidity;BME280_pressure;Samples;Min_cycle;Max_cycle;Signal;HPM_P1;HPM_P2
2024/01/31 00:01:44;;;;;;;9.93;2.00;;;5.50;99.90;;;;;;5034241;28;20541;-69
2024/01/31 00:04:10;;;;;;;11.00;2.20;;;5.60;99.90;;;;;;5003238;28;20099;-68
2024/01/31 00:06:35;;;;;;;11.80;2.28;;;5.50;99.90;;;;;;5016308;28;20914;-68
2024/01/31 00:09:01;;;;;;;11.23;2.10;;;5.60;99.90;;;;;;5017088;28;20440;-69
2024/01/31 00:11:30;;;;;;;8.55;1.70;;;5.50;99.90;;;;;;5032552;28;20049;-68
2024/01/31 00:13:56;;;;;;;12.82;2.38;;;5.50;99.90;;;;;;5033348;28;20087;-68
2024/01/31 00:16:22;;;;;;;10.05;1.63;;;5.50;99.90;;;;;;5016971;28;20090;-68
2024/01/31 00:18:50;;;;;;;10.57;2.10;;;5.40;99.90;;;;;;5034251;28;20048;-68
2024/01/31 00:21:16;;;;;;;7.88;2.20;;;5.40;99.90;;;;;;5017322;28;20137;-68
2024/01/31 00:23:42;;;;;;;11.90;2.20;;;5.50;99.90;;;;;;5014725;28;21941;-68
2024/01/31 00:26:07;;;;;;;11.88;1.90;;;5.50;99.90;;;;;;5017446;28;20045;-68
2024/01/31 00:28:33;;;;;;;14.50;2.42;;;5.50;99.90;;;;;;5015018;28;20053;-68
2024/01/31 00:30:58;;;;;;;9.85;2.20;;;5.50;99.90;;;;;;5015945;28;20127;-68
2024/01/31 00:33:24;;;;;;;12.40;2.00;;;5.50;99.90;;;;;;5017152;28;20057;-68
2024/01/31 00:35:49;;;;;;;13.00;1.88;;;5.40;99.90;;;;;;5016062;28;20097;-68
2024/01/31 00:38:15;;;;;;;9.80;1.67;;;5.50;99.90;;;;;;5035096;28;21952;-68
2024/01/31 00:40:40;;;;;;;9.07;1.45;;;5.50;99.90;;;;;;5031870;28;20080;-68
2024/01/31 00:43:09;;;;;;;14.15;2.28;;;5.40;99.90;;;;;;5034266;28;20041;-68
2024/01/31 00:45:35;;;;;;;13.52;1.90;;;5.40;99.90;;;;;;5016413;28;20148;-68
2024/01/31 00:48:00;;;;;;;6.10;1.40;;;5.40;99.90;;;;;;5031637;28;20037;-68
2024/01/31 00:50:26;;;;;;;9.27;1.63;;;5.30;99.90;;;;;;5016615;28;20048;-68
2024/01/31 00:52:51;;;;;;;11.88;2.22;;;5.30;99.90;;;;;;5030644;28;20519;-68
2024/01/31 00:55:17;;;;;;;12.10;2.03;;;5.40;99.90;;;;;;5016335;28;21053;-68
2024/01/31 00:57:44;;;;;;;9.55;2.03;;;5.40;99.90;;;;;;5014947;28;20053;-68
2024/01/31 01:00:11;;;;;;;6.53;1.90;;;5.40;99.90;;;;;;5033212;28;20041;-68
2024/01/31 01:02:40;;;;;;;12.73;2.10;;;5.40;99.90;;;;;;5035018;28;20579;-68
2024/01/31 01:05:07;;;;;;;12.88;2.20;;;5.40;99.90;;;;;;5013105;28;20134;-68
2024/01/31 01:07:32;;;;;;;11.65;2.05;;;5.40;99.90;;;;;;5014750;28;20094;-68
2024/01/31 01:09:58;;;;;;;10.55;2.00;;;5.40;99.90;;;;;;5032440;28;20049;-68
2024/01/31 01:12:23;;;;;;;8.30;2.40;;;5.30;99.90;;;;;;5036122;28;20044;-68
2024/01/31 01:14:49;;;;;;;9.30;2.00;;;5.40;99.90;;;;;;5031569;28;20040;-68
2024/01/31 01:17:14;;;;;;;11.38;2.10;;;5.40;99.90;;;;;;5015408;28;20049;-68
2024/01/31 01:19:40;;;;;;;11.55;2.10;;;5.30;99.90;;;;;;5032201;28;20060;-69
2024/01/31 01:22:06;;;;;;;8.48;1.75;;;5.30;99.90;;;;;;5032888;28;20127;-68
2024/01/31 01:24:31;;;;;;;7.65;1.67;;;5.40;99.90;;;;;;5033950;28;20041;-68
2024/01/31 01:26:57;;;;;;;11.13;2.20;;;5.30;99.90;;;;;;5012872;28;20173;-68
2024/01/31 01:29:22;;;;;;;7.30;2.20;;;5.30;99.90;;;;;;5014574;28;20049;-68
2024/01/31 01:31:48;;;;;;;10.63;1.88;;;5.30;99.90;;;;;;5032117;28;20044;-68
2024/01/31 01:34:14;;;;;;;7.75;1.80;;;5.30;99.90;;;;;;5013053;28;20063;-68
2024/01/31 01:36:39;;;;;;;8.85;1.88;;;5.30;99.90;;;;;;5034255;28;20041;-68
2024/01/31 01:39:05;;;;;;;7.85;1.75;;;5.30;99.90;;;;;;5031961;28;20063;-68
2024/01/31 01:41:30;;;;;;;9.60;1.85;;;5.30;99.90;;;;;;5032816;28;20048;-68
2024/01/31 01:43:56;;;;;;;10.23;1.80;;;5.30;99.90;;;;;;5028893;28;20052;-68
2024/01/31 01:46:22;;;;;;;11.50;1.70;;;5.30;99.90;;;;;;5033100;28;20087;-68
2024/01/31 01:48:49;;;;;;;9.02;1.58;;;5.20;99.90;;;;;;5030199;28;20032;-68
2024/01/31 01:51:20;;;;;;;7.82;1.63;;;5.30;99.90;;;;;;5030813;28;20061;-68
2024/01/31 01:53:47;;;;;;;6.18;1.40;;;5.20;99.90;;;;;;5014334;28;20080;-68
2024/01/31 01:56:17;;;;;;;7.57;1.65;;;5.20;99.90;;;;;;5013984;28;20158;-68
2024/01/31 01:58:44;;;;;;;9.35;1.40;;;5.20;99.90;;;;;;5013849;28;20045;-68
2024/01/31 02:01:12;;;;;;;11.38;1.75;;;5.20;99.90;;;;;;5015415;28;20045;-68
2024/01/31 02:03:37;;;;;;;6.80;1.50;;;5.20;99.90;;;;;;5032034;28;20075;-68
2024/01/31 02:06:03;;;;;;;8.13;1.50;;;5.20;99.90;;;;;;5015845;28;20480;-68
2024/01/31 02:08:29;;;;;;;8.75;1.48;;;5.20;99.90;;;;;;5030250;28;21896;-68
2024/01/31 02:10:56;;;;;;;7.13;1.35;;;5.30;99.90;;;;;;5031503;28;20415;-68
2024/01/31 02:13:22;;;;;;;7.72;1.25;;;5.20;99.90;;;;;;5030891;28;20140;-69
2024/01/31 02:15:55;;;;;;;5.13;1.15;;;5.20;99.90;;;;;;5031221;28;20041;-69
2024/01/31 02:18:22;;;;;;;10.23;1.48;;;5.30;99.90;;;;;;5013934;28;20049;-70
2024/01/31 02:20:48;;;;;;;10.02;1.70;;;5.20;99.90;;;;;;5012560;28;20041;-70
2024/01/31 02:23:14;;;;;;;5.90;1.30;;;5.20;99.90;;;;;;5012493;28;20041;-70
2024/01/31 02:25:39;;;;;;;10.35;1.83;;;5.30;99.90;;;;;;5032833;28;20934;-69
2024/01/31 02:28:05;;;;;;;7.80;1.98;;;5.30;99.90;;;;;;5012317;28;20488;-69
2024/01/31 02:30:31;;;;;;;12.15;2.17;;;5.30;99.90;;;;;;5014152;28;20040;-70
2024/01/31 02:32:56;;;;;;;7.55;2.05;;;5.20;99.90;;;;;;5030448;28;20124;-70
2024/01/31 02:35:23;;;;;;;5.30;2.10;;;5.30;99.90;;;;;;5032164;28;20041;-69
2024/01/31 02:37:49;;;;;;;8.70;2.00;;;5.30;99.90;;;;;;5031418;28;20037;-69
2024/01/31 02:40:15;;;;;;;10.45;2.03;;;5.30;99.90;;;;;;5012208;28;20059;-70
2024/01/31 02:42:42;;;;;;;9.48;1.98;;;5.20;99.90;;;;;;5032110;28;20109;-70
2024/01/31 02:45:08;;;;;;;7.07;1.70;;;5.20;99.90;;;;;;5010775;28;20049;-70
2024/01/31 02:47:33;;;;;;;10.52;1.55;;;5.30;99.90;;;;;;5032757;28;20041;-70
2024/01/31 02:50:00;;;;;;;7.97;1.60;;;5.30;99.90;;;;;;5026329;28;20060;-69
2024/01/31 02:52:26;;;;;;;9.68;1.70;;;5.30;99.90;;;;;;5032715;28;20045;-70
2024/01/31 02:54:51;;;;;;;4.97;1.50;;;5.30;99.90;;;;;;5030888;28;20048;-70
2024/01/31 02:57:18;;;;;;;10.05;1.60;;;5.30;99.90;;;;;;5017103;28;20146;-70
2024/01/31 02:59:43;;;;;;;7.45;1.63;;;5.20;99.90;;;;;;5036719;28;20051;-70
2024/01/31 03:02:09;;;;;;;4.35;1.48;;;5.30;99.90;;;;;;5016040;28;20037;-69
2024/01/31 03:04:34;;;;;;;6.72;1.45;;;5.20;99.90;;;;;;5036069;28;20037;-70
2024/01/31 03:07:00;;;;;;;9.57;1.58;;;5.20;99.90;;;;;;5034876;28;20134;-70
2024/01/31 03:09:27;;;;;;;8.40;1.63;;;5.20;99.90;;;;;;5017947;28;20040;-70
2024/01/31 03:11:53;;;;;;;8.90;1.60;;;5.20;99.90;;;;;;5034575;28;20087;-69
2024/01/31 03:14:19;;;;;;;6.63;1.45;;;5.20;99.90;;;;;;5016317;28;20044;-70
2024/01/31 03:16:44;;;;;;;7.38;1.50;;;5.20;99.90;;;;;;5016506;28;20109;-70
2024/01/31 03:19:10;;;;;;;9.68;1.63;;;5.20;99.90;;;;;;5016779;28;20055;-70
2024/01/31 03:21:36;;;;;;;10.18;1.73;;;5.20;99.90;;;;;;5018374;28;21029;-70
2024/01/31 03:24:01;;;;;;;5.78;1.63;;;5.20;99.90;;;;;;5034020;28;20080;-70
2024/01/31 03:26:27;;;;;;;11.48;1.80;;;5.20;99.90;;;;;;5037277;28;20098;-70
2024/01/31 03:28:54;;;;;;;8.88;1.73;;;5.30;99.90;;;;;;5034928;28;20052;-70
2024/01/31 03:31:19;;;;;;;5.97;1.42;;;5.20;99.90;;;;;;5016739;28;20045;-70
2024/01/31 03:33:45;;;;;;;6.28;1.50;;;5.20;99.90;;;;;;5017288;28;20076;-70
2024/01/31 03:36:11;;;;;;;9.32;1.80;;;5.30;99.90;;;;;;5034994;28;20138;-70
2024/01/31 03:38:38;;;;;;;8.95;1.63;;;5.20;99.90;;;;;;5014720;28;20041;-70
2024/01/31 03:41:04;;;;;;;9.43;1.52;;;5.20;99.90;;;;;;5033458;28;20058;-70
2024/01/31 03:43:30;;;;;;;9.90;1.80;;;5.20;99.90;;;;;;5031741;28;20036;-70
2024/01/31 03:45:56;;;;;;;9.48;1.48;;;5.20;99.90;;;;;;5036039;28;20091;-70
2024/01/31 03:48:21;;;;;;;10.80;1.83;;;5.30;99.90;;;;;;5016260;28;20067;-70
2024/01/31 03:50:47;;;;;;;6.15;1.65;;;5.30;99.90;;;;;;5034633;28;20033;-70
2024/01/31 03:53:13;;;;;;;8.02;1.95;;;5.20;99.90;;;;;;5034192;28;20052;-71
2024/01/31 03:55:39;;;;;;;7.43;2.05;;;5.30;99.90;;;;;;5035401;28;20045;-70
2024/01/31 03:58:04;;;;;;;6.32;1.50;;;5.30;99.90;;;;;;5034416;28;20060;-70
2024/01/31 04:00:30;;;;;;;5.90;1.25;;;5.20;99.90;;;;;;5015546;28;20657;-70
2024/01/31 04:02:56;;;;;;;4.13;1.20;;;5.30;99.90;;;;;;5017290;28;20080;-70
2024/01/31 04:05:21;;;;;;;7.65;1.40;;;5.30;99.90;;;;;;5034239;28;20055;-70
2024/01/31 04:07:47;;;;;;;6.45;1.20;;;5.20;99.90;;;;;;5016664;28;21088;-70
2024/01/31 04:10:14;;;;;;;5.38;1.35;;;5.20;99.90;;;;;;5015127;28;20045;-69
2024/01/31 04:12:39;;;;;;;3.72;1.30;;;5.20;99.90;;;;;;5017119;28;20041;-69
2024/01/31 04:15:05;;;;;;;2.70;0.95;;;5.20;99.90;;;;;;5033279;28;20051;-69
2024/01/31 04:17:31;;;;;;;2.20;0.85;;;5.20;99.90;;;;;;5033841;28;20049;-69
2024/01/31 04:19:57;;;;;;;3.80;0.95;;;5.20;99.90;;;;;;5016914;28;20110;-69
2024/01/31 04:22:22;;;;;;;4.53;1.00;;;5.20;99.90;;;;;;5032030;28;20060;-69
2024/01/31 04:24:48;;;;;;;7.57;1.10;;;5.20;99.90;;;;;;5035867;28;20056;-69
2024/01/31 04:27:13;;;;;;;2.80;0.93;;;5.20;99.90;;;;;;5014412;28;20045;-69
2024/01/31 04:29:40;;;;;;;2.80;0.90;;;5.30;99.90;;;;;;5035024;28;20439;-69
2024/01/31 04:32:06;;;;;;;4.35;1.10;;;5.30;99.90;;;;;;5014261;28;20817;-69
2024/01/31 04:34:34;;;;;;;3.05;1.13;;;5.30;99.90;;;;;;5014682;28;20044;-69
2024/01/31 04:36:59;;;;;;;2.40;1.00;;;5.30;99.90;;;;;;5035880;28;20051;-70
2024/01/31 04:39:25;;;;;;;3.95;1.02;;;5.30;99.90;;;;;;5014154;28;20044;-70
2024/01/31 04:41:50;;;;;;;4.03;1.02;;;5.20;99.90;;;;;;5033526;28;20499;-69
2024/01/31 04:44:16;;;;;;;5.38;1.25;;;5.20;99.90;;;;;;5031512;28;20099;-69
2024/01/31 04:46:42;;;;;;;4.13;0.90;;;5.20;99.90;;;;;;5032840;28;20072;-69
2024/01/31 04:49:08;;;;;;;4.53;1.27;;;5.20;99.90;;;;;;5012534;28;20055;-70
2024/01/31 04:51:39;;;;;;;6.15;0.90;;;5.20;99.90;;;;;;5010926;28;20475;-69
2024/01/31 04:54:04;;;;;;;7.22;1.30;;;5.20;99.90;;;;;;5030919;28;20045;-69
2024/01/31 04:56:30;;;;;;;6.40;1.25;;;5.10;99.90;;;;;;5011079;28;20063;-69
2024/01/31 04:58:55;;;;;;;6.35;1.35;;;5.10;99.90;;;;;;5030646;28;20776;-69
2024/01/31 05:01:21;;;;;;;8.68;1.23;;;5.00;99.90;;;;;;5012768;28;20068;-69
2024/01/31 05:03:46;;;;;;;7.53;1.30;;;4.90;99.90;;;;;;5030515;28;20084;-69
2024/01/31 05:06:12;;;;;;;4.57;1.02;;;4.80;99.90;;;;;;5014757;28;20064;-69
2024/01/31 05:08:38;;;;;;;4.15;0.80;;;4.80;99.90;;;;;;5030565;28;20042;-69
2024/01/31 05:11:03;;;;;;;8.50;1.27;;;4.80;99.90;;;;;;5015001;28;20103;-69
2024/01/31 05:13:29;;;;;;;4.13;1.00;;;4.80;99.90;;;;;;5013995;28;20072;-69
2024/01/31 05:15:54;;;;;;;5.50;1.23;;;4.80;99.90;;;;;;5014746;28;20590;-70
2024/01/31 05:18:20;;;;;;;4.70;1.05;;;4.80;99.90;;;;;;5010092;28;20041;-69
2024/01/31 05:20:46;;;;;;;5.25;1.38;;;4.80;99.90;;;;;;5029168;28;22597;-69
2024/01/31 05:23:11;;;;;;;5.57;1.40;;;4.90;99.90;;;;;;5032791;28;20513;-69
2024/01/31 05:25:37;;;;;;;5.63;1.50;;;5.00;99.90;;;;;;5035644;28;20041;-70
2024/01/31 05:28:03;;;;;;;6.50;1.15;;;5.10;99.90;;;;;;5016064;28;20049;-69
2024/01/31 05:30:29;;;;;;;6.88;1.73;;;5.10;99.90;;;;;;5032487;28;20029;-69
2024/01/31 05:32:54;;;;;;;8.35;1.45;;;5.10;99.90;;;;;;5030261;28;20072;-69
2024/01/31 05:35:20;;;;;;;9.30;1.60;;;5.20;99.90;;;;;;5030655;28;20052;-70
2024/01/31 05:37:46;;;;;;;7.88;1.60;;;5.20;99.90;;;;;;5013466;28;20048;-69
2024/01/31 05:40:16;;;;;;;8.88;1.88;;;5.20;99.90;;;;;;5031490;28;20065;-69
2024/01/31 05:42:42;;;;;;;5.18;1.60;;;5.20;99.90;;;;;;5013423;28;20049;-68
2024/01/31 05:45:08;;;;;;;5.90;1.95;;;5.20;99.90;;;;;;5031629;28;20139;-69
2024/01/31 05:47:35;;;;;;;8.23;2.05;;;5.20;99.90;;;;;;5012662;28;20060;-69
2024/01/31 05:50:01;;;;;;;6.63;1.95;;;5.20;99.90;;;;;;5029408;28;20079;-69
2024/01/31 05:52:27;;;;;;;9.75;2.10;;;5.20;99.90;;;;;;5032194;28;20803;-69
2024/01/31 05:54:52;;;;;;;8.93;2.03;;;5.20;99.90;;;;;;5030418;28;20044;-70
2024/01/31 05:57:18;;;;;;;8.98;2.03;;;5.20;99.90;;;;;;5029019;28;20048;-69
2024/01/31 05:59:44;;;;;;;9.30;2.17;;;5.20;99.90;;;;;;5028545;28;21175;-69
2024/01/31 06:02:09;;;;;;;7.25;2.00;;;5.20;99.90;;;;;;5016257;28;20052;-69
2024/01/31 06:04:35;;;;;;;9.95;2.33;;;5.20;99.90;;;;;;5030114;28;20051;-69
2024/01/31 06:07:00;;;;;;;7.97;2.42;;;5.20;99.90;;;;;;5030990;28;20425;-69
2024/01/31 06:09:26;;;;;;;9.45;2.45;;;5.20;99.90;;;;;;5014159;28;20090;-68
2024/01/31 06:11:52;;;;;;;4.28;2.00;;;5.20;99.90;;;;;;5015784;28;20127;-69
2024/01/31 06:14:17;;;;;;;7.32;2.35;;;5.20;99.90;;;;;;5030408;28;20051;-69
2024/01/31 06:16:43;;;;;;;8.07;2.28;;;5.20;99.90;;;;;;5033786;28;20049;-69
2024/01/31 06:19:09;;;;;;;11.57;2.60;;;5.20;99.90;;;;;;5014627;28;20076;-70
2024/01/31 06:21:34;;;;;;;6.80;2.50;;;5.20;99.90;;;;;;5032439;28;20044;-71
2024/01/31 06:24:00;;;;;;;7.25;2.67;;;5.20;99.90;;;;;;5031225;28;20047;-70
2024/01/31 06:26:28;;;;;;;7.18;2.50;;;5.20;99.90;;;;;;5029587;28;20053;-70
2024/01/31 06:28:54;;;;;;;10.30;2.80;;;5.20;99.90;;;;;;5030754;28;20124;-70
2024/01/31 06:31:27;;;;;;;7.55;2.63;;;5.20;99.90;;;;;;5012097;28;20076;-71
2024/01/31 06:33:53;;;;;;;6.82;2.50;;;5.20;99.90;;;;;;5029553;28;20056;-71
2024/01/31 06:36:20;;;;;;;6.30;2.90;;;5.20;99.90;;;;;;5029545;28;20052;-69
2024/01/31 06:38:46;;;;;;;8.73;2.72;;;5.30;99.90;;;;;;5013951;28;22186;-69
2024/01/31 06:41:14;;;;;;;7.32;2.88;;;5.30;99.90;;;;;;5013858;28;20045;-69
2024/01/31 06:43:40;;;;;;;11.13;3.13;;;5.20;99.90;;;;;;5013813;28;20056;-69
2024/01/31 06:46:05;;;;;;;6.03;2.67;;;5.30;99.90;;;;;;5014095;28;20045;-69
2024/01/31 06:48:31;;;;;;;10.60;3.17;;;5.20;99.90;;;;;;5012014;28;20045;-69
2024/01/31 06:50:56;;;;;;;11.57;3.28;;;5.20;99.90;;;;;;5013220;28;20102;-69
2024/01/31 06:53:22;;;;;;;8.43;2.85;;;5.20;99.90;;;;;;5032774;28;20555;-69
2024/01/31 06:55:48;;;;;;;9.65;3.50;;;5.20;99.90;;;;;;5033140;28;20048;-69
2024/01/31 06:58:13;;;;;;;7.20;3.17;;;5.20;99.90;;;;;;5033464;28;20481;-69
2024/01/31 07:00:39;;;;;;;8.00;3.20;;;5.20;99.90;;;;;;5027351;28;20058;-69
2024/01/31 07:03:05;;;;;;;10.73;3.70;;;5.20;99.90;;;;;;5031755;28;20056;-69
2024/01/31 07:05:30;;;;;;;6.63;3.13;;;5.20;99.90;;;;;;5026033;28;20126;-68
2024/01/31 07:07:56;;;;;;;8.65;3.65;;;5.20;99.90;;;;;;5031067;28;20045;-70
2024/01/31 07:10:21;;;;;;;11.70;3.38;;;5.20;99.90;;;;;;5031411;28;20678;-69
2024/01/31 07:12:47;;;;;;;10.85;3.22;;;5.20;99.90;;;;;;5030356;28;20039;-69
2024/01/31 07:15:14;;;;;;;11.23;3.25;;;5.20;99.90;;;;;;5014371;28;20033;-69
2024/01/31 07:17:40;;;;;;;9.90;3.40;;;5.20;99.90;;;;;;5033929;28;20045;-69
2024/01/31 07:20:06;;;;;;;7.05;3.30;;;5.20;99.90;;;;;;5015958;28;20040;-69
2024/01/31 07:22:32;;;;;;;9.32;3.50;;;5.20;99.90;;;;;;5033536;28;20084;-69
2024/01/31 07:24:57;;;;;;;9.57;3.42;;;5.20;99.90;;;;;;5016706;28;20136;-69
2024/01/31 07:27:23;;;;;;;9.68;4.22;;;5.20;99.90;;;;;;5017238;28;20558;-69
2024/01/31 07:29:48;;;;;;;9.05;3.83;;;5.20;99.90;;;;;;5033501;28;20123;-69
2024/01/31 07:32:14;;;;;;;8.25;4.07;;;5.20;99.90;;;;;;5017701;28;20056;-69
2024/01/31 07:34:40;;;;;;;6.47;3.92;;;5.20;99.90;;;;;;5033321;28;20049;-69
2024/01/31 07:37:05;;;;;;;8.45;4.35;;;5.20;99.90;;;;;;5017823;28;20053;-69
2024/01/31 07:39:32;;;;;;;12.95;4.72;;;5.20;99.90;;;;;;5000239;28;20053;-70
2024/01/31 07:41:58;;;;;;;8.48;4.85;;;5.20;99.90;;;;;;5035661;28;20576;-69
2024/01/31 07:44:23;;;;;;;9.60;4.70;;;5.20;99.90;;;;;;5037816;28;20049;-69
2024/01/31 07:46:49;;;;;;;10.50;5.47;;;5.20;99.90;;;;;;5036009;28;20057;-69
2024/01/31 07:49:15;;;;;;;10.25;5.78;;;5.20;99.90;;;;;;5019281;28;20071;-69
2024/01/31 07:51:41;;;;;;;8.93;5.53;;;5.30;99.90;;;;;;5018537;28;20048;-69
2024/01/31 07:54:07;;;;;;;10.88;5.93;;;5.30;99.90;;;;;;5018277;28;20064;-69
2024/01/31 07:56:32;;;;;;;10.70;5.97;;;5.30;99.90;;;;;;5019077;28;20049;-71
2024/01/31 07:58:58;;;;;;;10.52;6.10;;;5.30;99.90;;;;;;5017041;28;20060;-71
2024/01/31 08:01:23;;;;;;;11.77;5.80;;;5.30;99.90;;;;;;5038720;28;20107;-71
2024/01/31 08:03:49;;;;;;;11.82;5.93;;;5.30;99.90;;;;;;5038237;28;20048;-70
2024/01/31 08:06:15;;;;;;;9.05;5.90;;;5.30;99.90;;;;;;5018730;28;20045;-70
2024/01/31 08:08:42;;;;;;;9.95;6.05;;;5.30;99.90;;;;;;5038676;28;20067;-70
2024/01/31 08:11:08;;;;;;;9.23;5.60;;;5.30;99.90;;;;;;5021392;28;20045;-71
2024/01/31 08:13:34;;;;;;;11.50;5.90;;;5.40;99.90;;;;;;5019610;28;20495;-71
2024/01/31 08:15:59;;;;;;;11.52;5.82;;;5.40;99.90;;;;;;5035566;28;22275;-70
2024/01/31 08:18:25;;;;;;;10.80;6.38;;;5.50;99.90;;;;;;5037259;28;20041;-71
2024/01/31 08:20:51;;;;;;;8.98;5.60;;;5.50;99.90;;;;;;5020019;28;20132;-71
2024/01/31 08:23:16;;;;;;;10.98;6.03;;;5.50;99.90;;;;;;5018131;28;20045;-71
2024/01/31 08:25:42;;;;;;;12.40;5.38;;;5.50;99.90;;;;;;5036077;28;20049;-70
2024/01/31 08:28:07;;;;;;;8.38;5.32;;;5.50;99.90;;;;;;5019410;28;20045;-70
2024/01/31 08:30:33;;;;;;;10.38;5.25;;;5.50;99.90;;;;;;5035624;28;20143;-70
2024/01/31 08:32:59;;;;;;;9.40;5.55;;;5.50;99.90;;;;;;5017053;28;20695;-70
2024/01/31 08:35:25;;;;;;;13.85;5.22;;;5.60;99.90;;;;;;5017619;28;20170;-68
2024/01/31 08:37:52;;;;;;;8.35;4.60;;;5.60;99.90;;;;;;5035554;28;20364;-71
2024/01/31 08:40:17;;;;;;;11.82;4.70;;;5.70;99.90;;;;;;5016808;28;20102;-71
2024/01/31 08:42:43;;;;;;;8.40;4.30;;;5.70;99.90;;;;;;5015105;28;20064;-72
2024/01/31 08:45:10;;;;;;;7.25;4.05;;;5.70;99.90;;;;;;5034739;28;20064;-71
2024/01/31 08:47:36;;;;;;;7.90;4.07;;;5.80;99.90;;;;;;5003382;28;20052;-71
2024/01/31 08:50:02;;;;;;;7.05;4.00;;;5.80;99.90;;;;;;5034362;28;20045;-71
2024/01/31 08:52:27;;;;;;;4.70;3.67;;;5.80;99.90;;;;;;5034435;28;20647;-71
2024/01/31 08:54:53;;;;;;;8.15;3.88;;;5.80;99.90;;;;;;5017622;28;20072;-71
2024/01/31 08:57:18;;;;;;;5.93;3.65;;;5.80;99.90;;;;;;5035650;28;20075;-71
2024/01/31 08:59:44;;;;;;;4.85;3.38;;;5.90;99.90;;;;;;5013699;28;20135;-71
2024/01/31 09:02:10;;;;;;;7.15;3.80;;;5.90;99.90;;;;;;5034927;28;20515;-71
2024/01/31 09:04:35;;;;;;;7.60;3.90;;;5.90;99.90;;;;;;5015835;28;20188;-71
2024/01/31 09:07:01;;;;;;;6.03;3.40;;;5.90;99.90;;;;;;5014224;28;20056;-71
2024/01/31 09:09:26;;;;;;;5.72;3.75;;;5.90;99.90;;;;;;5032734;28;20068;-71
2024/01/31 09:11:52;;;;;;;5.50;3.60;;;6.00;99.90;;;;;;5031483;28;20076;-71
2024/01/31 09:14:18;;;;;;;7.70;3.60;;;5.90;99.90;;;;;;5016397;28;20090;-71
2024/01/31 09:16:44;;;;;;;4.70;3.60;;;5.90;99.90;;;;;;5014971;28;20062;-72
2024/01/31 09:19:09;;;;;;;4.35;3.45;;;6.00;99.90;;;;;;5030998;28;20084;-71
2024/01/31 09:21:35;;;;;;;8.15;3.60;;;6.00;99.90;;;;;;5017952;28;20049;-71
2024/01/31 09:24:01;;;;;;;5.93;4.05;;;6.00;99.90;;;;;;5016554;28;20121;-71
2024/01/31 09:26:26;;;;;;;5.75;3.75;;;6.00;99.90;;;;;;5019042;28;20037;-71
2024/01/31 09:28:52;;;;;;;6.88;4.00;;;6.00;99.90;;;;;;5033094;28;20069;-72
2024/01/31 09:31:23;;;;;;;7.20;4.00;;;6.10;99.90;;;;;;5034798;28;20060;-71
2024/01/31 09:33:52;;;;;;;6.05;3.63;;;6.10;99.90;;;;;;5033269;28;20041;-72
2024/01/31 09:36:18;;;;;;;5.70;3.75;;;6.10;99.90;;;;;;5018493;28;20107;-71
2024/01/31 09:38:44;;;;;;;5.90;3.60;;;6.20;99.90;;;;;;5016417;28;20040;-71
2024/01/31 09:41:10;;;;;;;8.75;4.07;;;6.20;99.90;;;;;;5037160;28;20034;-71
2024/01/31 09:43:36;;;;;;;6.50;4.05;;;6.20;99.90;;;;;;5035177;28;20048;-71
2024/01/31 09:46:05;;;;;;;7.63;3.90;;;6.20;99.90;;;;;;5017691;28;20039;-71
2024/01/31 09:48:31;;;;;;;4.85;4.20;;;6.20;99.90;;;;;;5015267;28;20060;-71
2024/01/31 09:51:02;;;;;;;6.00;4.00;;;6.30;99.90;;;;;;5013614;28;20041;-71
2024/01/31 09:53:33;;;;;;;11.30;4.80;;;6.30;99.90;;;;;;5036042;28;20128;-71
2024/01/31 09:55:59;;;;;;;8.30;4.63;;;6.30;99.90;;;;;;5016171;28;20500;-71
2024/01/31 09:58:25;;;;;;;6.95;4.47;;;6.30;99.90;;;;;;5032334;28;20041;-71
2024/01/31 10:00:52;;;;;;;6.70;4.20;;;6.30;99.90;;;;;;5015454;28;20045;-71
2024/01/31 10:03:18;;;;;;;6.93;4.45;;;6.40;99.90;;;;;;5032033;28;20094;-72
2024/01/31 10:05:44;;;;;;;8.43;4.70;;;6.40;99.90;;;;;;5014851;28;20056;-71
2024/01/31 10:08:10;;;;;;;7.95;5.22;;;6.40;99.90;;;;;;5032112;28;20049;-71
2024/01/31 10:10:39;;;;;;;8.00;4.50;;;6.50;99.90;;;;;;5034044;28;20053;-71
2024/01/31 10:13:09;;;;;;;7.60;5.03;;;6.50;99.90;;;;;;5015709;28;20653;-71
2024/01/31 10:15:35;;;;;;;8.27;4.90;;;6.50;99.90;;;;;;5014593;28;20056;-71
2024/01/31 10:18:01;;;;;;;5.82;5.22;;;6.60;99.90;;;;;;5034372;28;20044;-71
2024/01/31 10:20:27;;;;;;;8.77;5.28;;;6.50;99.90;;;;;;5014482;28;20402;-71
2024/01/31 10:22:52;;;;;;;7.38;5.05;;;6.60;99.90;;;;;;5014475;28;20167;-71
2024/01/31 10:25:18;;;;;;;6.20;5.03;;;6.60;99.90;;;;;;5013098;28;20045;-71
2024/01/31 10:27:46;;;;;;;8.57;5.38;;;6.60;99.90;;;;;;5034715;28;20041;-71
2024/01/31 10:30:13;;;;;;;8.20;4.97;;;6.60;99.90;;;;;;5010528;28;20037;-71
2024/01/31 10:32:44;;;;;;;6.88;5.72;;;6.60;99.90;;;;;;5033532;28;20041;-71
2024/01/31 10:35:11;;;;;;;7.18;5.88;;;6.60;99.90;;;;;;5032852;28;20044;-71
2024/01/31 10:37:37;;;;;;;7.75;5.38;;;6.60;99.90;;;;;;5016084;28;20416;-71
2024/01/31 10:40:05;;;;;;;10.98;6.03;;;6.70;99.90;;;;;;5031829;28;20124;-71
2024/01/31 10:42:31;;;;;;;7.40;5.65;;;6.70;99.90;;;;;;5033179;28;20045;-71
2024/01/31 10:44:58;;;;;;;6.88;5.32;;;6.70;99.90;;;;;;5032357;28;20052;-71
2024/01/31 10:47:23;;;;;;;9.35;5.75;;;6.70;99.90;;;;;;5030359;28;20049;-71
2024/01/31 10:49:49;;;;;;;7.50;6.13;;;6.70;99.90;;;;;;5011372;28;20053;-71
2024/01/31 10:52:19;;;;;;;9.18;6.18;;;6.80;99.90;;;;;;5032847;28;20124;-71
2024/01/31 10:54:52;;;;;;;8.90;6.20;;;6.80;99.90;;;;;;5033525;28;20033;-71
2024/01/31 10:57:18;;;;;;;6.97;5.70;;;6.80;99.90;;;;;;5013671;28;20052;-71
2024/01/31 10:59:44;;;;;;;8.15;6.50;;;6.80;99.90;;;;;;5034874;28;20045;-71
2024/01/31 11:02:17;;;;;;;8.10;5.95;;;6.90;99.90;;;;;;5033510;28;20067;-71
2024/01/31 11:04:43;;;;;;;9.07;6.53;;;6.90;99.90;;;;;;5033369;28;20128;-71
2024/01/31 11:07:18;;;;;;;9.98;6.85;;;6.90;99.90;;;;;;5031709;28;20045;-71
2024/01/31 11:09:45;;;;;;;10.85;7.93;;;6.90;99.90;;;;;;5015690;28;20053;-71
2024/01/31 11:12:13;;;;;;;9.68;7.68;;;6.90;99.90;;;;;;5017402;28;20243;-72
2024/01/31 11:14:41;;;;;;;11.43;8.38;;;6.80;99.90;;;;;;5017250;28;20243;-72
2024/01/31 11:17:12;;;;;;;14.05;9.98;;;6.80;99.90;;;;;;5037468;28;20053;-71
2024/01/31 11:19:50;;;;;;;10.57;9.00;;;6.80;99.90;;;;;;5014334;28;20652;-71
2024/01/31 11:22:16;;;;;;;10.65;8.60;;;6.90;99.90;;;;;;5019937;28;20056;-71
2024/01/31 11:24:53;;;;;;;10.73;9.23;;;6.80;99.90;;;;;;5038657;28;20033;-71
2024/01/31 11:27:19;;;;;;;11.70;8.55;;;6.80;99.90;;;;;;5039092;28;20480;-71
2024/01/31 11:29:52;;;;;;;10.05;8.93;;;6.80;99.90;;;;;;5021206;28;20044;-72
2024/01/31 11:32:18;;;;;;;11.05;8.25;;;6.80;99.90;;;;;;5021938;28;20072;-71
2024/01/31 11:34:44;;;;;;;10.65;8.40;;;6.90;99.90;;;;;;5019901;28;20099;-71
2024/01/31 11:37:10;;;;;;;9.77;7.53;;;6.90;99.90;;;;;;5033365;28;20040;-71
2024/01/31 11:39:36;;;;;;;9.63;7.80;;;6.90;99.90;;;;;;5037688;28;20045;-71
2024/01/31 11:42:02;;;;;;;9.43;7.47;;;6.90;99.90;;;;;;5018821;28;20412;-71
2024/01/31 11:44:29;;;;;;;8.38;7.00;;;6.90;99.90;;;;;;5020825;28;20064;-71
2024/01/31 11:46:56;;;;;;;11.32;7.15;;;6.90;99.90;;;;;;5036645;28;20498;-72
2024/01/31 11:49:22;;;;;;;8.13;6.63;;;7.00;99.90;;;;;;5020904;28;20424;-72
2024/01/31 11:51:48;;;;;;;8.82;6.45;;;7.00;99.90;;;;;;5016724;28;20048;-71
2024/01/31 11:54:14;;;;;;;8.73;6.72;;;7.10;99.90;;;;;;5017802;28;20110;-71
2024/01/31 11:56:40;;;;;;;8.90;7.22;;;7.10;99.90;;;;;;5039382;28;20041;-72
2024/01/31 11:59:07;;;;;;;7.40;6.70;;;7.10;99.90;;;;;;5020784;28;20523;-71
2024/01/31 12:01:34;;;;;;;8.07;6.72;;;7.10;99.90;;;;;;5021707;28;20136;-71
2024/01/31 12:04:02;;;;;;;8.45;6.22;;;7.30;99.90;;;;;;5019368;28;20108;-71
2024/01/31 12:06:27;;;;;;;9.20;6.93;;;7.30;99.90;;;;;;5035808;28;20044;-71
2024/01/31 12:08:53;;;;;;;8.63;7.28;;;7.30;99.90;;;;;;5031089;28;20075;-71
2024/01/31 12:11:20;;;;;;;8.73;7.03;;;7.30;99.90;;;;;;5034684;28;20051;-71
2024/01/31 12:13:46;;;;;;;9.05;6.65;;;7.30;99.90;;;;;;5031067;28;20107;-71
2024/01/31 12:16:12;;;;;;;8.15;6.55;;;7.40;99.90;;;;;;5033403;28;20103;-71
2024/01/31 12:18:39;;;;;;;7.35;6.55;;;7.40;99.90;;;;;;5018947;28;20057;-71
2024/01/31 12:21:05;;;;;;;7.75;6.95;;;7.40;99.90;;;;;;5020238;28;20098;-71
2024/01/31 12:23:31;;;;;;;8.63;7.72;;;7.50;99.90;;;;;;5018098;28;20131;-71
2024/01/31 12:25:58;;;;;;;8.73;7.50;;;7.50;99.90;;;;;;5018067;28;20059;-71
2024/01/31 12:28:27;;;;;;;11.32;8.13;;;7.50;99.90;;;;;;5017691;28;20049;-71
2024/01/31 12:30:53;;;;;;;9.65;8.63;;;7.50;99.90;;;;;;5037701;28;20048;-71
2024/01/31 12:33:19;;;;;;;11.10;8.75;;;7.50;99.90;;;;;;5012882;28;20042;-71
2024/01/31 12:35:45;;;;;;;12.13;9.73;;;7.50;99.90;;;;;;5017188;28;20045;-71
2024/01/31 12:38:12;;;;;;;13.77;10.38;;;7.50;99.90;;;;;;5018826;28;20040;-71
2024/01/31 12:40:38;;;;;;;11.77;10.50;;;7.40;99.90;;;;;;5016699;28;20056;-72
2024/01/31 12:43:04;;;;;;;11.57;10.38;;;7.40;99.90;;;;;;5035286;28;20056;-71
2024/01/31 12:45:31;;;;;;;11.70;10.50;;;7.40;99.90;;;;;;5030835;28;20057;-72
2024/01/31 12:47:57;;;;;;;12.15;10.18;;;7.40;99.90;;;;;;5036072;28;20428;-71
2024/01/31 12:50:22;;;;;;;12.40;11.05;;;7.40;99.90;;;;;;5034973;28;20044;-70